Time;durP1;ratioP1;P1;durP2;ratioP2;P2;SDS_P1;SDS_P2;PMS_P1;PMS_P2;Temp;Humidity;BMP_temperature;BMP_pressure;BME280_temperature;BME280_humidity;BME280_pressure;Samples;Min_cycle;Max_cycle;Signal;HPM_P1;HPM_P2
2021/03/11 00:00:53;;;;;;;46.63;15.77;;;1.40;92.50;;;;;;5044950;28;20203;-71
2021/03/11 00:03:21;;;;;;;41.90;13.40;;;1.40;92.70;;;;;;5029517;28;20195;-71
2021/03/11 00:05:48;;;;;;;38.87;13.57;;;1.30;92.90;;;;;;5023727;28;20186;-70
2021/03/11 00:08:15;;;;;;;31.83;11.83;;;1.30;92.90;;;;;;5044883;28;20205;-71
2021/03/11 00:10:42;;;;;;;35.50;12.93;;;1.30;93.00;;;;;;5029719;28;20547;-70
2021/03/11 00:13:11;;;;;;;32.30;11.87;;;1.30;93.10;;;;;;5027844;28;20209;-69
2021/03/11 00:15:41;;;;;;;34.07;13.97;;;1.20;93.20;;;;;;5060661;28;20226;-69
2021/03/11 00:18:08;;;;;;;39.20;14.10;;;1.20;93.40;;;;;;5062280;28;20267;-70
2021/03/11 00:20:35;;;;;;;46.30;16.57;;;1.10;93.50;;;;;;5029812;28;20202;-70
2021/03/11 00:23:02;;;;;;;43.77;16.33;;;1.10;93.80;;;;;;5060121;28;20567;-70
2021/03/11 00:25:31;;;;;;;40.43;16.20;;;1.00;94.00;;;;;;5028905;28;20281;-70
2021/03/11 00:27:58;;;;;;;56.73;19.60;;;1.00;94.30;;;;;;5028813;28;20217;-70
2021/03/11 00:30:25;;;;;;;52.47;18.47;;;0.90;94.60;;;;;;5028514;28;20720;-70
2021/03/11 00:32:52;;;;;;;47.03;17.30;;;0.90;94.80;;;;;;5029138;28;20194;-70
2021/03/11 00:35:20;;;;;;;41.57;15.00;;;0.90;94.90;;;;;;5061082;28;20762;-70
2021/03/11 00:37:47;;;;;;;48.93;17.93;;;0.90;95.10;;;;;;5059047;28;20233;-70
2021/03/11 00:40:16;;;;;;;38.40;15.73;;;0.90;95.20;;;;;;5026039;28;20195;-70
2021/03/11 00:42:43;;;;;;;78.63;20.40;;;0.90;95.30;;;;;;5061184;28;20242;-70
2021/03/11 00:45:11;;;;;;;48.30;15.23;;;0.90;95.50;;;;;;5028116;28;20233;-70
2021/03/11 00:47:38;;;;;;;83.90;20.20;;;0.90;95.50;;;;;;5028246;28;20238;-70
2021/03/11 00:50:06;;;;;;;91.23;21.80;;;0.80;95.80;;;;;;5027305;28;20248;-70
2021/03/11 00:52:33;;;;;;;78.17;19.67;;;0.80;96.00;;;;;;5030649;28;20210;-70
2021/03/11 00:54:59;;;;;;;60.67;19.47;;;0.80;96.20;;;;;;5061423;28;20237;-70
2021/03/11 00:57:26;;;;;;;42.83;15.93;;;0.80;96.30;;;;;;5029324;28;20190;-70
2021/03/11 00:59:54;;;;;;;44.37;15.30;;;0.80;96.40;;;;;;5028078;28;20626;-70
2021/03/11 01:02:20;;;;;;;44.13;14.87;;;0.80;96.50;;;;;;5029173;28;20309;-70
2021/03/11 01:04:47;;;;;;;35.77;14.13;;;0.80;96.60;;;;;;5011836;28;20206;-70
2021/03/11 01:07:17;;;;;;;41.00;14.90;;;0.80;96.70;;;;;;5029717;28;20236;-70
2021/03/11 01:09:43;;;;;;;37.83;14.57;;;0.80;96.80;;;;;;5028314;28;20255;-70
2021/03/11 01:12:12;;;;;;;38.53;14.20;;;0.70;96.80;;;;;;5028091;28;20730;-70
2021/03/11 01:14:38;;;;;;;36.60;13.80;;;0.70;96.80;;;;;;5026284;28;20239;-70
2021/03/11 01:17:06;;;;;;;48.63;17.00;;;0.70;97.20;;;;;;5018948;28;20293;-70
2021/03/11 01:19:33;;;;;;;45.93;15.57;;;0.70;97.10;;;;;;5027300;28;20209;-69
2021/03/11 01:22:00;;;;;;;39.80;15.27;;;0.60;97.10;;;;;;5032350;28;20293;-70
2021/03/11 01:24:26;;;;;;;45.37;17.20;;;0.70;97.30;;;;;;5031975;28;20207;-70
2021/03/11 01:26:53;;;;;;;38.37;14.97;;;0.60;97.40;;;;;;5032299;28;20198;-70
2021/03/11 01:29:20;;;;;;;37.33;14.03;;;0.60;97.50;;;;;;5032821;28;20249;-70
2021/03/11 01:31:46;;;;;;;34.23;13.90;;;0.60;97.50;;;;;;5032793;28;20198;-70
2021/03/11 01:34:14;;;;;;;35.80;13.60;;;0.60;97.60;;;;;;5032788;28;20570;-70
2021/03/11 01:36:40;;;;;;;30.90;12.70;;;0.60;97.60;;;;;;5032648;28;20202;-70
2021/03/11 01:39:07;;;;;;;35.70;13.10;;;0.60;97.70;;;;;;5064826;28;20349;-70
2021/03/11 01:41:33;;;;;;;31.87;12.37;;;0.60;97.80;;;;;;5031786;28;20249;-70
2021/03/11 01:44:00;;;;;;;34.53;13.13;;;0.60;97.90;;;;;;5032551;28;20187;-70
2021/03/11 01:46:28;;;;;;;32.77;12.47;;;0.60;98.10;;;;;;5030785;28;20697;-70
2021/03/11 01:48:54;;;;;;;32.87;12.43;;;0.50;98.20;;;;;;5048045;28;20234;-70
2021/03/11 01:51:23;;;;;;;41.13;15.80;;;0.50;98.30;;;;;;5031599;28;20228;-69
2021/03/11 01:53:51;;;;;;;34.90;14.30;;;0.50;98.50;;;;;;5064703;28;20393;-70
2021/03/11 01:56:18;;;;;;;32.23;13.73;;;0.40;98.70;;;;;;5063581;28;20611;-70
2021/03/11 01:58:46;;;;;;;36.40;13.40;;;0.40;98.80;;;;;;5033118;28;20623;-70
2021/03/11 02:01:13;;;;;;;30.80;13.13;;;0.40;99.00;;;;;;5031121;28;20292;-70
2021/03/11 02:03:41;;;;;;;49.17;17.43;;;0.40;99.10;;;;;;5030477;28;20607;-70
2021/03/11 02:06:07;;;;;;;37.50;15.57;;;0.40;99.30;;;;;;5044018;28;20693;-70
2021/03/11 02:08:35;;;;;;;39.90;15.17;;;0.40;99.40;;;;;;5031453;28;20750;-70
2021/03/11 02:11:02;;;;;;;32.93;13.70;;;0.30;99.50;;;;;;5031481;28;20659;-69
2021/03/11 02:13:36;;;;;;;34.23;14.47;;;0.30;99.60;;;;;;5063369;28;20221;-70
2021/03/11 02:16:11;;;;;;;41.27;15.77;;;0.30;99.70;;;;;;5032511;28;20300;-70
2021/03/11 02:18:43;;;;;;;38.80;13.50;;;0.30;99.80;;;;;;5033212;28;20248;-70
2021/03/11 02:21:12;;;;;;;36.57;15.27;;;0.30;99.90;;;;;;5027216;28;20198;-70
2021/03/11 02:24:06;;;;;;;37.73;14.63;;;0.20;99.90;;;;;;5030747;28;20194;-70
2021/03/11 02:26:49;;;;;;;43.30;14.70;;;0.20;99.90;;;;;;5031679;28;20222;-70
2021/03/11 02:29:23;;;;;;;33.43;13.77;;;0.20;99.90;;;;;;5063226;28;20301;-70
2021/03/11 02:31:50;;;;;;;34.17;13.70;;;0.20;99.90;;;;;;5030276;28;20216;-70
2021/03/11 02:34:20;;;;;;;34.53;12.70;;;0.20;99.90;;;;;;5030425;28;20260;-70
2021/03/11 02:36:50;;;;;;;30.27;12.17;;;0.10;99.90;;;;;;5030297;28;20234;-70
2021/03/11 02:39:17;;;;;;;26.97;10.90;;;0.10;99.90;;;;;;5030148;28;20198;-70
2021/03/11 02:41:45;;;;;;;42.03;16.00;;;0.10;99.90;;;;;;5029390;28;20206;-70
2021/03/11 02:44:12;;;;;;;36.37;14.33;;;0.10;99.90;;;;;;5030169;28;20217;-70
2021/03/11 02:46:41;;;;;;;36.20;14.27;;;0.10;99.90;;;;;;5063544;28;20220;-70
2021/03/11 02:49:08;;;;;;;39.87;14.77;;;0.10;99.90;;;;;;5029883;28;20328;-70
2021/03/11 02:51:35;;;;;;;39.60;15.17;;;0.10;99.90;;;;;;5063497;28;20709;-70
2021/03/11 02:54:02;;;;;;;36.67;14.03;;;0.10;99.90;;;;;;5030473;28;20233;-70
2021/03/11 02:56:29;;;;;;;35.93;13.60;;;0.00;99.90;;;;;;5029569;28;20226;-70
2021/03/11 02:58:58;;;;;;;35.77;14.60;;;0.00;99.90;;;;;;5031040;28;20210;-70
2021/03/11 03:01:25;;;;;;;36.33;13.60;;;0.00;99.90;;;;;;5030101;28;20772;-70
2021/03/11 03:03:53;;;;;;;37.67;14.60;;;0.00;99.90;;;;;;5030644;28;20234;-70
2021/03/11 03:06:20;;;;;;;36.10;14.43;;;-0.10;99.90;;;;;;5022959;28;20186;-70
2021/03/11 03:08:48;;;;;;;43.77;15.47;;;-0.10;99.90;;;;;;5031158;28;20201;-70
2021/03/11 03:11:16;;;;;;;48.37;15.10;;;-0.10;99.90;;;;;;5030353;28;20260;-70
2021/03/11 03:13:44;;;;;;;41.67;16.27;;;-0.10;99.90;;;;;;5030784;28;20711;-70
2021/03/11 03:16:12;;;;;;;41.60;16.93;;;-0.10;99.90;;;;;;5029559;28;20240;-70
2021/03/11 03:18:40;;;;;;;51.10;19.43;;;-0.10;99.90;;;;;;5030412;28;20202;-70
2021/03/11 03:21:10;;;;;;;53.03;17.93;;;-0.20;99.90;;;;;;5061981;28;20233;-70
2021/03/11 03:23:38;;;;;;;39.53;16.60;;;-0.20;99.90;;;;;;5030033;28;20542;-71
2021/03/11 03:26:05;;;;;;;52.00;20.13;;;-0.20;99.90;;;;;;5029152;28;20190;-70
2021/03/11 03:28:32;;;;;;;42.00;17.30;;;-0.30;99.90;;;;;;5029197;28;20241;-70
2021/03/11 03:30:58;;;;;;;45.50;18.23;;;-0.20;99.90;;;;;;5029465;28;20538;-70
2021/03/11 03:33:25;;;;;;;36.07;14.60;;;-0.30;99.90;;;;;;5062897;28;20205;-70
2021/03/11 03:35:52;;;;;;;36.57;14.90;;;-0.30;99.90;;;;;;5030366;28;20206;-70
2021/03/11 03:38:19;;;;;;;36.43;14.63;;;-0.30;99.90;;;;;;5028957;28;20206;-70
2021/03/11 03:40:46;;;;;;;38.80;15.53;;;-0.30;99.90;;;;;;5029317;28;20206;-70
2021/03/11 03:43:15;;;;;;;37.43;15.03;;;-0.30;99.90;;;;;;5029322;28;20187;-70
2021/03/11 03:45:44;;;;;;;37.20;16.67;;;-0.30;99.90;;;;;;5062550;28;20283;-70
2021/03/11 03:48:16;;;;;;;37.67;15.87;;;-0.30;99.90;;;;;;5030098;28;20730;-70
2021/03/11 03:50:47;;;;;;;36.90;14.43;;;-0.30;99.90;;;;;;5061513;28;20214;-69
2021/03/11 03:53:21;;;;;;;33.23;14.30;;;-0.40;99.90;;;;;;5028915;28;20225;-70
2021/03/11 03:55:53;;;;;;;34.07;13.00;;;-0.30;99.90;;;;;;5030911;28;20537;-70
2021/03/11 03:58:21;;;;;;;32.90;13.27;;;-0.30;99.90;;;;;;5028421;28;20252;-70
2021/03/11 04:00:48;;;;;;;33.87;14.07;;;-0.30;99.90;;;;;;5028408;28;20296;-70
2021/03/11 04:03:16;;;;;;;30.03;12.57;;;-0.40;99.90;;;;;;5029345;28;20206;-70
2021/03/11 04:05:43;;;;;;;30.73;12.67;;;-0.40;99.90;;;;;;5025162;28;20532;-69
2021/03/11 04:08:11;;;;;;;43.73;18.13;;;-0.30;99.90;;;;;;5028768;28;20210;-69
2021/03/11 04:10:42;;;;;;;41.70;17.07;;;-0.40;99.90;;;;;;5062909;28;20198;-70
2021/03/11 04:13:09;;;;;;;41.73;18.03;;;-0.40;99.90;;;;;;5061838;28;20210;-69
2021/03/11 04:15:37;;;;;;;43.53;17.40;;;-0.50;99.90;;;;;;5030009;28;20788;-70
2021/03/11 04:18:05;;;;;;;47.00;17.50;;;-0.50;99.90;;;;;;5062325;28;20240;-69
2021/03/11 04:20:32;;;;;;;47.17;18.13;;;-0.50;99.90;;;;;;5027928;28;20717;-69
2021/03/11 04:22:59;;;;;;;52.67;20.50;;;-0.60;99.90;;;;;;5062369;28;20202;-69
2021/03/11 04:25:26;;;;;;;46.70;19.20;;;-0.50;99.90;;;;;;5030069;28;20198;-69
2021/03/11 04:27:54;;;;;;;51.93;20.13;;;-0.60;99.90;;;;;;5061670;28;20210;-69
2021/03/11 04:30:21;;;;;;;45.83;17.53;;;-0.60;99.90;;;;;;5027975;28;20260;-69
2021/03/11 04:32:49;;;;;;;44.37;17.80;;;-0.60;99.90;;;;;;5029044;28;20557;-70
2021/03/11 04:35:16;;;;;;;59.07;21.17;;;-0.60;99.90;;;;;;5027716;28;20241;-70
2021/03/11 04:37:43;;;;;;;50.77;19.47;;;-0.60;99.90;;;;;;5026792;28;20268;-70
2021/03/11 04:40:12;;;;;;;43.93;18.67;;;-0.60;99.90;;;;;;5026598;28;20304;-70
2021/03/11 04:42:39;;;;;;;57.43;21.67;;;-0.60;99.90;;;;;;5026390;28;20194;-70
2021/03/11 04:45:08;;;;;;;51.63;19.77;;;-0.60;99.90;;;;;;5027863;28;20221;-70
2021/03/11 04:47:37;;;;;;;51.97;17.93;;;-0.60;99.90;;;;;;5028960;28;20325;-69
2021/03/11 04:50:06;;;;;;;46.70;17.93;;;-0.60;99.90;;;;;;5026481;28;20500;-69
2021/03/11 04:52:34;;;;;;;54.23;18.73;;;-0.60;99.90;;;;;;5046107;28;20559;-69
2021/03/11 04:55:01;;;;;;;51.60;19.40;;;-0.50;99.90;;;;;;5028593;28;20222;-69
2021/03/11 04:57:28;;;;;;;53.43;19.17;;;-0.50;99.90;;;;;;5032387;28;20237;-69
2021/03/11 04:59:57;;;;;;;43.30;17.47;;;-0.50;99.90;;;;;;5032903;28;20202;-70
2021/03/11 05:02:27;;;;;;;56.17;20.23;;;-0.50;99.90;;;;;;5034269;28;20708;-70
2021/03/11 05:04:54;;;;;;;75.17;25.07;;;-0.50;99.90;;;;;;5031618;28;20320;-69
2021/03/11 05:07:21;;;;;;;57.10;20.57;;;-0.50;99.90;;;;;;5032477;28;20242;-70
2021/03/11 05:09:48;;;;;;;51.63;19.97;;;-0.40;99.90;;;;;;5033414;28;20201;-70
2021/03/11 05:12:14;;;;;;;49.47;19.10;;;-0.40;99.90;;;;;;5065188;28;20199;-69
2021/03/11 05:14:41;;;;;;;59.93;22.23;;;-0.40;99.90;;;;;;5059854;28;20230;-69
2021/03/11 05:17:08;;;;;;;60.13;22.93;;;-0.40;99.90;;;;;;5042749;28;20659;-70
2021/03/11 05:19:35;;;;;;;52.93;21.20;;;-0.40;99.90;;;;;;5065245;28;20566;-70
2021/03/11 05:22:02;;;;;;;70.10;25.87;;;-0.30;99.90;;;;;;5033200;28;20658;-70
2021/03/11 05:24:29;;;;;;;70.13;25.97;;;-0.30;99.90;;;;;;5033411;28;20230;-70
2021/03/11 05:26:56;;;;;;;73.60;26.60;;;-0.40;99.90;;;;;;5030858;28;20202;-70
2021/03/11 05:29:22;;;;;;;72.30;26.27;;;-0.40;99.90;;;;;;5032867;28;20571;-70
2021/03/11 05:31:49;;;;;;;63.57;23.53;;;-0.40;99.90;;;;;;5065043;28;20269;-71
2021/03/11 05:34:16;;;;;;;64.80;23.33;;;-0.40;99.90;;;;;;5033266;28;20199;-70
2021/03/11 05:36:43;;;;;;;67.70;25.23;;;-0.30;99.90;;;;;;5032707;28;20273;-70
2021/03/11 05:39:10;;;;;;;60.90;23.63;;;-0.30;99.90;;;;;;5031820;28;20213;-70
2021/03/11 05:41:39;;;;;;;65.17;23.70;;;-0.20;99.90;;;;;;5032088;28;20218;-71
2021/03/11 05:44:07;;;;;;;58.93;23.97;;;-0.20;99.90;;;;;;5032852;28;20658;-70
2021/03/11 05:46:38;;;;;;;55.27;22.23;;;-0.20;99.90;;;;;;5031100;28;20605;-70
2021/03/11 05:49:05;;;;;;;58.03;23.37;;;-0.10;99.90;;;;;;5030985;28;20241;-70
2021/03/11 05:51:31;;;;;;;64.70;24.83;;;0.00;99.90;;;;;;5064128;28;20301;-71
2021/03/11 05:53:59;;;;;;;78.27;27.90;;;0.00;99.90;;;;;;5031592;28;20229;-70
2021/03/11 05:56:26;;;;;;;68.53;26.27;;;0.00;99.90;;;;;;5031297;28;20646;-70
2021/03/11 05:58:55;;;;;;;57.53;23.23;;;0.00;99.90;;;;;;5031949;28;20563;-70
2021/03/11 06:01:23;;;;;;;57.93;23.27;;;0.10;99.90;;;;;;5032490;28;20199;-70
2021/03/11 06:03:52;;;;;;;74.83;25.70;;;0.20;99.90;;;;;;5033056;28;20546;-70
2021/03/11 06:06:21;;;;;;;68.37;24.50;;;0.30;99.90;;;;;;5029374;28;20190;-71
2021/03/11 06:08:48;;;;;;;69.30;25.37;;;0.30;99.90;;;;;;5025989;28;20191;-70
2021/03/11 06:11:18;;;;;;;73.53;28.40;;;0.40;99.90;;;;;;5030049;28;20296;-70
2021/03/11 06:13:45;;;;;;;71.17;27.80;;;0.40;99.90;;;;;;5032826;28;20685;-70
2021/03/11 06:16:16;;;;;;;60.80;23.17;;;0.40;99.90;;;;;;5063725;28;20218;-71
2021/03/11 06:18:43;;;;;;;67.23;24.63;;;0.50;99.90;;;;;;5031468;28;20202;-71
2021/03/11 06:21:09;;;;;;;76.40;27.40;;;0.60;99.90;;;;;;5046277;28;20685;-71
2021/03/11 06:23:36;;;;;;;65.63;26.23;;;0.70;99.90;;;;;;5030955;28;20214;-71
2021/03/11 06:26:03;;;;;;;66.03;25.40;;;0.70;99.90;;;;;;5031871;28;20186;-71
2021/03/11 06:28:55;;;;;;;71.47;26.43;;;0.80;99.90;;;;;;5031812;28;20217;-71
2021/03/11 06:31:24;;;;;;;77.90;28.10;;;0.90;99.90;;;;;;5030850;28;20214;-71
2021/03/11 06:33:53;;;;;;;68.97;27.17;;;0.90;99.90;;;;;;5032595;28;20255;-71
2021/03/11 06:36:21;;;;;;;71.13;26.33;;;1.00;99.90;;;;;;5063404;28;20328;-71
2021/03/11 06:38:48;;;;;;;66.17;25.00;;;1.10;99.90;;;;;;5029727;28;20203;-71
2021/03/11 06:41:15;;;;;;;72.57;27.27;;;1.10;99.90;;;;;;5028468;28;20214;-71
2021/03/11 06:43:56;;;;;;;67.37;26.97;;;1.20;99.90;;;;;;5030162;28;20193;-71
2021/03/11 06:46:24;;;;;;;69.80;26.43;;;1.30;99.90;;;;;;5031051;28;20247;-71
2021/03/11 06:49:04;;;;;;;68.53;25.30;;;1.30;99.90;;;;;;5031891;28;20562;-71
2021/03/11 06:51:31;;;;;;;62.70;26.27;;;1.50;99.90;;;;;;5063249;28;20280;-71
2021/03/11 06:53:58;;;;;;;60.63;24.30;;;1.40;99.90;;;;;;5030117;28;20622;-71
2021/03/11 06:56:26;;;;;;;55.13;23.03;;;1.50;99.90;;;;;;5028524;28;20217;-71
2021/03/11 06:58:58;;;;;;;66.13;24.33;;;1.50;99.90;;;;;;5031782;28;20602;-71
2021/03/11 07:01:25;;;;;;;56.30;23.70;;;1.60;99.90;;;;;;5029643;28;20275;-71
2021/03/11 07:03:52;;;;;;;54.50;22.47;;;1.60;99.90;;;;;;5030794;28;20206;-71
2021/03/11 07:06:31;;;;;;;52.20;21.87;;;1.70;99.90;;;;;;5029321;28;20206;-71
2021/03/11 07:08:59;;;;;;;52.43;22.87;;;1.70;99.90;;;;;;5062642;28;20551;-71
2021/03/11 07:11:26;;;;;;;53.63;22.23;;;1.80;99.90;;;;;;5018725;28;20607;-70
2021/03/11 07:13:54;;;;;;;49.90;21.47;;;1.90;99.90;;;;;;5041572;28;20194;-72
2021/03/11 07:16:23;;;;;;;49.47;20.93;;;1.90;99.90;;;;;;5050019;28;20221;-71
2021/03/11 07:19:09;;;;;;;52.70;22.47;;;2.00;99.90;;;;;;5040549;28;20293;-71
2021/03/11 07:21:41;;;;;;;50.77;21.07;;;2.00;99.90;;;;;;5059370;28;20252;-71
2021/03/11 07:24:08;;;;;;;50.83;20.23;;;2.00;99.90;;;;;;5011171;28;20202;-70
2021/03/11 07:26:35;;;;;;;52.90;21.50;;;2.10;99.90;;;;;;5024235;28;20187;-71
2021/03/11 07:29:16;;;;;;;55.13;21.27;;;2.20;99.90;;;;;;5040799;28;20206;-71
2021/03/11 07:31:44;;;;;;;52.80;21.57;;;2.20;99.90;;;;;;5025535;28;20198;-71
2021/03/11 07:34:11;;;;;;;48.03;19.50;;;2.20;99.90;;;;;;5027163;28;20194;-71
2021/03/11 07:36:40;;;;;;;54.30;20.70;;;2.20;99.90;;;;;;5026848;28;20377;-71
2021/03/11 07:39:08;;;;;;;48.10;20.00;;;2.30;99.90;;;;;;5028377;28;20205;-71
2021/03/11 07:41:35;;;;;;;41.27;17.87;;;2.30;99.90;;;;;;5027850;28;20189;-72
2021/03/11 07:44:03;;;;;;;51.93;19.87;;;2.40;99.90;;;;;;5027816;28;20252;-71
2021/03/11 07:46:31;;;;;;;46.77;18.63;;;2.40;99.90;;;;;;5026519;28;20289;-71
2021/03/11 07:49:01;;;;;;;44.90;19.10;;;2.40;99.90;;;;;;5028987;28;20230;-71
2021/03/11 07:51:28;;;;;;;45.47;18.90;;;2.40;99.90;;;;;;5027761;28;20232;-72
2021/03/11 07:53:56;;;;;;;40.67;18.67;;;2.50;99.90;;;;;;5027016;28;20289;-70
2021/03/11 07:56:23;;;;;;;48.60;18.40;;;2.50;99.90;;;;;;5026554;28;20218;-71
2021/03/11 07:58:49;;;;;;;45.13;19.40;;;2.60;99.90;;;;;;5028536;28;20609;-71
2021/03/11 08:01:16;;;;;;;54.13;19.40;;;2.60;99.90;;;;;;5029019;28;20702;-70
2021/03/11 08:03:46;;;;;;;49.17;19.03;;;2.60;99.90;;;;;;5025567;28;20247;-71
2021/03/11 08:06:26;;;;;;;50.57;19.13;;;2.60;99.90;;;;;;5040071;28;20194;-71
2021/03/11 08:08:54;;;;;;;46.37;19.13;;;2.70;99.90;;;;;;5027840;28;20617;-71
2021/03/11 08:11:35;;;;;;;45.37;18.50;;;2.70;99.90;;;;;;5026114;28;20216;-71
2021/03/11 08:14:21;;;;;;;44.57;18.03;;;2.70;99.90;;;;;;5029178;28;20202;-71
2021/03/11 08:16:48;;;;;;;35.43;15.60;;;2.70;99.90;;;;;;5022976;28;20267;-72
2021/03/11 08:19:48;;;;;;;45.53;19.20;;;2.80;99.90;;;;;;5026641;28;20705;-71
2021/03/11 08:22:36;;;;;;;42.67;17.60;;;2.80;99.80;;;;;;5026186;28;20194;-70
2021/03/11 08:25:02;;;;;;;45.60;18.13;;;2.80;99.60;;;;;;5043173;28;20205;-71
2021/03/11 08:27:40;;;;;;;40.50;16.43;;;2.90;99.20;;;;;;5025885;28;20190;-72
2021/03/11 08:30:28;;;;;;;43.73;16.97;;;2.90;99.10;;;;;;5016111;28;20733;-71
2021/03/11 08:32:55;;;;;;;38.83;17.20;;;2.90;99.00;;;;;;5030713;28;20186;-71
2021/03/11 08:35:35;;;;;;;43.27;17.57;;;3.00;98.70;;;;;;5029785;28;20210;-70
2021/03/11 08:38:38;;;;;;;46.47;17.70;;;3.00;98.20;;;;;;5027720;28;20222;-71
2021/03/11 08:41:07;;;;;;;45.20;18.00;;;3.10;97.20;;;;;;5059038;28;20728;-70
2021/03/11 08:43:54;;;;;;;40.33;17.30;;;3.10;97.50;;;;;;5062687;28;20706;-71
2021/03/11 08:46:21;;;;;;;41.20;17.53;;;3.10;97.20;;;;;;5059071;28;20203;-73
2021/03/11 08:48:50;;;;;;;38.33;17.37;;;3.20;97.00;;;;;;5030734;28;20222;-71
2021/03/11 08:51:36;;;;;;;43.07;16.83;;;3.20;96.90;;;;;;5062637;28;20206;-70
2021/03/11 08:54:05;;;;;;;44.77;17.10;;;3.30;96.70;;;;;;5023725;28;20226;-71
2021/03/11 08:56:44;;;;;;;43.87;18.00;;;3.30;96.30;;;;;;5029134;28;20210;-71
2021/03/11 08:59:16;;;;;;;42.70;18.73;;;3.30;95.70;;;;;;5030141;28;20262;-71
2021/03/11 09:01:47;;;;;;;49.63;17.77;;;3.40;95.50;;;;;;5028837;28;20244;-70
2021/03/11 09:04:39;;;;;;;41.07;18.37;;;3.40;95.20;;;;;;5031549;28;20191;-71
2021/03/11 09:07:06;;;;;;;40.30;16.90;;;3.40;94.80;;;;;;5057958;28;20197;-72
2021/03/11 09:09:36;;;;;;;47.43;17.00;;;3.50;94.00;;;;;;5058733;28;20552;-71
2021/03/11 09:12:05;;;;;;;57.93;19.90;;;3.40;93.80;;;;;;5029182;28;20206;-71
2021/03/11 09:14:34;;;;;;;39.40;16.97;;;3.50;93.30;;;;;;5013720;28;20201;-71
2021/03/11 09:17:19;;;;;;;44.23;16.77;;;3.50;93.00;;;;;;5030310;28;20223;-71
2021/03/11 09:19:46;;;;;;;41.07;15.33;;;3.60;93.00;;;;;;5028478;28;20289;-71
2021/03/11 09:22:21;;;;;;;51.33;18.93;;;3.70;92.70;;;;;;5030820;28;20229;-71
2021/03/11 09:25:11;;;;;;;47.57;16.80;;;3.70;92.10;;;;;;5027783;28;20202;-70
2021/03/11 09:27:39;;;;;;;38.83;15.80;;;3.70;91.70;;;;;;5056074;28;20195;-70
2021/03/11 09:30:09;;;;;;;36.63;15.67;;;3.70;91.20;;;;;;5030432;28;20202;-70
2021/03/11 09:32:37;;;;;;;38.33;15.23;;;3.70;91.10;;;;;;5056805;28;20203;-70
2021/03/11 09:35:06;;;;;;;36.57;14.63;;;3.70;90.80;;;;;;5031136;28;20199;-70
2021/03/11 09:38:01;;;;;;;40.73;16.40;;;3.70;90.70;;;;;;5029805;28;20211;-70
2021/03/11 09:40:34;;;;;;;39.67;15.83;;;3.70;90.60;;;;;;5031308;28;20277;-71
2021/03/11 09:43:14;;;;;;;39.27;16.17;;;3.70;90.50;;;;;;5028773;28;20685;-70
2021/03/11 09:45:46;;;;;;;37.17;15.53;;;3.80;90.20;;;;;;5029728;28;20222;-70
2021/03/11 09:48:15;;;;;;;39.47;15.87;;;3.80;90.10;;;;;;5030234;28;20230;-72
2021/03/11 09:50:59;;;;;;;38.00;15.47;;;3.80;89.20;;;;;;5029127;28;20737;-72
2021/03/11 09:53:36;;;;;;;33.87;14.83;;;3.80;88.60;;;;;;5027693;28;21957;-70
2021/03/11 09:56:05;;;;;;;36.10;15.87;;;3.80;88.60;;;;;;5031468;28;20293;-70
2021/03/11 09:58:32;;;;;;;34.07;15.30;;;3.80;88.10;;;;;;5061128;28;21191;-70
2021/03/11 10:00:59;;;;;;;36.73;15.40;;;3.90;88.00;;;;;;5031426;28;20251;-70
2021/03/11 10:03:27;;;;;;;35.03;15.27;;;3.90;87.20;;;;;;5030353;28;20197;-71
2021/03/11 10:05:56;;;;;;;33.50;15.37;;;3.90;86.80;;;;;;5028624;28;20202;-71
2021/03/11 10:08:31;;;;;;;43.33;14.80;;;3.90;86.50;;;;;;5063127;28;20667;-69
2021/03/11 10:11:16;;;;;;;31.50;14.73;;;3.90;86.30;;;;;;5027183;28;20197;-71
2021/03/11 10:13:49;;;;;;;36.00;15.87;;;3.90;86.20;;;;;;5021614;28;20214;-71
2021/03/11 10:16:41;;;;;;;37.50;16.13;;;4.00;86.10;;;;;;5042832;28;21143;-71
2021/03/11 10:19:12;;;;;;;34.60;15.20;;;3.90;84.30;;;;;;5020100;28;20280;-71
2021/03/11 10:21:47;;;;;;;36.90;14.87;;;4.00;84.80;;;;;;5022041;28;20199;-71
2021/03/11 10:24:28;;;;;;;68.80;20.60;;;4.00;84.60;;;;;;5061893;28;20235;-71
2021/03/11 10:26:56;;;;;;;49.67;18.50;;;4.10;84.60;;;;;;5024544;28;20195;-70
2021/03/11 10:29:25;;;;;;;50.27;19.77;;;4.10;84.30;;;;;;5025241;28;20563;-70
2021/03/11 10:31:56;;;;;;;43.17;17.47;;;4.20;83.60;;;;;;5027570;28;20207;-71
2021/03/11 10:34:23;;;;;;;35.27;15.53;;;4.20;83.50;;;;;;5025497;28;20187;-70
2021/03/11 10:36:55;;;;;;;32.97;15.30;;;4.30;82.40;;;;;;5028614;28;20313;-72
2021/03/11 10:39:23;;;;;;;31.67;15.03;;;4.30;81.70;;;;;;5028416;28;20194;-71
2021/03/11 10:42:00;;;;;;;33.07;15.30;;;4.40;81.30;;;;;;5028437;28;20229;-75
2021/03/11 10:44:29;;;;;;;34.53;16.50;;;4.40;80.80;;;;;;5029816;28;20186;-74
2021/03/11 10:47:14;;;;;;;31.63;14.53;;;4.40;79.80;;;;;;5029272;28;20562;-74
2021/03/11 10:49:42;;;;;;;36.27;15.90;;;4.30;79.50;;;;;;5029317;28;20221;-71
2021/03/11 10:52:09;;;;;;;44.23;17.43;;;4.30;79.20;;;;;;5029171;28;20179;-72
2021/03/11 10:54:35;;;;;;;35.53;15.40;;;4.30;79.20;;;;;;5028788;28;20205;-73
2021/03/11 10:57:08;;;;;;;34.13;14.90;;;4.20;79.10;;;;;;5027740;28;20280;-73
2021/03/11 10:59:52;;;;;;;34.27;15.90;;;4.20;79.80;;;;;;5027586;28;20283;-73
2021/03/11 11:02:20;;;;;;;28.93;14.00;;;4.20;80.90;;;;;;5030307;28;20237;-72
2021/03/11 11:04:46;;;;;;;34.87;15.33;;;4.20;81.80;;;;;;5028200;28;20693;-72
2021/03/11 11:07:13;;;;;;;26.50;13.57;;;4.10;81.70;;;;;;5028641;28;20673;-73
2021/03/11 11:09:40;;;;;;;32.53;15.90;;;4.10;82.40;;;;;;5029429;28;20194;-71
2021/03/11 11:12:09;;;;;;;27.57;13.67;;;4.00;84.60;;;;;;5058962;28;20205;-72
2021/03/11 11:14:36;;;;;;;28.03;13.53;;;3.90;88.40;;;;;;5027759;28;20638;-72
2021/03/11 11:17:03;;;;;;;31.80;15.00;;;3.90;90.10;;;;;;5026975;28;20230;-72
2021/03/11 11:19:30;;;;;;;29.97;15.30;;;3.80;90.80;;;;;;5027989;28;20202;-72
2021/03/11 11:21:56;;;;;;;28.23;13.10;;;3.70;94.40;;;;;;5056882;28;20261;-72
2021/03/11 11:24:23;;;;;;;32.73;15.77;;;3.50;97.80;;;;;;5024248;28;20213;-72
2021/03/11 11:26:50;;;;;;;32.30;14.70;;;3.30;99.90;;;;;;5058971;28;20643;-71
2021/03/11 11:29:17;;;;;;;32.33;15.63;;;3.20;99.90;;;;;;5025530;28;20253;-72
2021/03/11 11:31:43;;;;;;;38.40;16.67;;;3.10;99.90;;;;;;5028185;28;20530;-72
2021/03/11 11:34:10;;;;;;;29.77;14.40;;;2.90;99.90;;;;;;5060569;28;20285;-72
2021/03/11 11:36:36;;;;;;;28.73;14.00;;;2.90;99.90;;;;;;5060320;28;20236;-72
2021/03/11 11:39:04;;;;;;;26.67;14.10;;;2.70;99.90;;;;;;5028256;28;20697;-73
2021/03/11 11:41:31;;;;;;;41.87;16.17;;;2.60;99.90;;;;;;5026401;28;20232;-72
2021/03/11 11:43:57;;;;;;;30.43;14.10;;;2.40;99.90;;;;;;5027310;28;20647;-72
2021/03/11 11:46:25;;;;;;;32.20;14.80;;;2.20;99.90;;;;;;5028412;28;20195;-72
2021/03/11 11:48:51;;;;;;;30.77;14.53;;;2.10;99.90;;;;;;5059487;28;20230;-72
2021/03/11 11:51:18;;;;;;;39.30;17.13;;;2.00;99.90;;;;;;5026708;28;20198;-72
2021/03/11 11:53:44;;;;;;;31.67;15.37;;;2.00;99.90;;;;;;5027113;28;20206;-72
2021/03/11 11:56:11;;;;;;;30.33;15.10;;;1.90;99.90;;;;;;5027213;28;20301;-72
2021/03/11 11:58:43;;;;;;;35.77;16.10;;;1.80;99.90;;;;;;5027218;28;20305;-71
2021/03/11 12:01:10;;;;;;;35.20;16.73;;;1.80;99.90;;;;;;5058686;28;20210;-72
2021/03/11 12:03:38;;;;;;;35.40;16.27;;;1.70;99.90;;;;;;5027954;28;20516;-72
2021/03/11 12:06:05;;;;;;;32.23;16.03;;;1.60;99.90;;;;;;5027031;28;20213;-72
2021/03/11 12:08:32;;;;;;;37.40;16.80;;;1.50;99.90;;;;;;5029476;28;20286;-72
2021/03/11 12:10:59;;;;;;;36.83;17.63;;;1.50;99.90;;;;;;5026219;28;20198;-72
2021/03/11 12:13:26;;;;;;;40.10;18.20;;;1.40;99.90;;;;;;5024638;28;20202;-71
2021/03/11 12:15:52;;;;;;;44.73;19.83;;;1.30;99.90;;;;;;5027726;28;20297;-71
2021/03/11 12:18:19;;;;;;;40.73;18.83;;;1.30;99.90;;;;;;5028593;28;20559;-72
2021/03/11 12:20:46;;;;;;;41.03;19.73;;;1.20;99.90;;;;;;5028257;28;20207;-72
2021/03/11 12:23:14;;;;;;;42.57;20.43;;;1.20;99.90;;;;;;5028394;28;20293;-72
2021/03/11 12:25:41;;;;;;;42.07;21.20;;;1.10;99.90;;;;;;5026420;28;20209;-73
2021/03/11 12:28:08;;;;;;;48.87;22.00;;;1.00;99.90;;;;;;5028578;28;20312;-73
2021/03/11 12:30:34;;;;;;;45.60;21.50;;;1.00;99.90;;;;;;5059655;28;20206;-73
2021/03/11 12:33:01;;;;;;;49.37;21.63;;;1.00;99.90;;;;;;5027297;28;20204;-73
2021/03/11 12:35:28;;;;;;;45.13;21.37;;;0.90;99.90;;;;;;5025742;28;20215;-73
2021/03/11 12:37:56;;;;;;;50.10;23.10;;;0.90;99.90;;;;;;5026766;28;20194;-72
2021/03/11 12:40:23;;;;;;;55.00;22.60;;;0.90;99.90;;;;;;5011617;28;20565;-72
2021/03/11 12:42:50;;;;;;;53.07;24.63;;;0.90;99.90;;;;;;5057499;28;20594;-72
2021/03/11 12:45:19;;;;;;;50.77;24.77;;;0.90;99.90;;;;;;5026961;28;20226;-72
2021/03/11 12:47:46;;;;;;;59.17;26.03;;;0.80;99.90;;;;;;5027262;28;20253;-72